sensor_id;sensor_type;location;lat;lon;timestamp;P1;durP1;ratioP1;P2;durP2;ratioP2
22476;SDS011;65006;51.698;-0.292;2022-12-18T00:02:16;39.30;;;14.63;;
22476;SDS011;65006;51.698;-0.292;2022-12-18T00:04:42;38.78;;;15.10;;
22476;SDS011;65006;51.698;-0.292;2022-12-18T00:07:08;55.17;;;15.75;;
22476;SDS011;65006;51.698;-0.292;2022-12-18T00:09:34;49.63;;;18.73;;
22476;SDS011;65006;51.698;-0.292;2022-12-18T00:12:00;53.40;;;17.48;;
22476;SDS011;65006;51.698;-0.292;2022-12-18T00:14:26;45.47;;;16.77;;
22476;SDS011;65006;51.698;-0.292;2022-12-18T00:16:52;43.70;;;17.50;;
22476;SDS011;65006;51.698;-0.292;2022-12-18T00:19:18;46.67;;;18.63;;
22476;SDS011;65006;51.698;-0.292;2022-12-18T00:21:44;43.80;;;16.65;;
22476;SDS011;65006;51.698;-0.292;2022-12-18T00:24:10;55.42;;;16.80;;
22476;SDS011;65006;51.698;-0.292;2022-12-18T00:26:37;51.00;;;16.58;;
22476;SDS011;65006;51.698;-0.292;2022-12-18T00:29:05;60.90;;;18.17;;
22476;SDS011;65006;51.698;-0.292;2022-12-18T00:31:31;43.88;;;15.55;;
22476;SDS011;65006;51.698;-0.292;2022-12-18T00:33:58;52.00;;;17.30;;
22476;SDS011;65006;51.698;-0.292;2022-12-18T00:36:25;45.78;;;16.75;;
22476;SDS011;65006;51.698;-0.292;2022-12-18T00:38:51;45.92;;;17.00;;
22476;SDS011;65006;51.698;-0.292;2022-12-18T00:41:18;41.13;;;15.85;;
22476;SDS011;65006;51.698;-0.292;2022-12-18T00:44:03;52.20;;;17.65;;
22476;SDS011;65006;51.698;-0.292;2022-12-18T00:48:55;56.72;;;18.67;;
22476;SDS011;65006;51.698;-0.292;2022-12-18T00:51:21;48.53;;;17.75;;
22476;SDS011;65006;51.698;-0.292;2022-12-18T00:53:47;43.97;;;16.63;;
22476;SDS011;65006;51.698;-0.292;2022-12-18T00:56:13;46.65;;;17.73;;
22476;SDS011;65006;51.698;-0.292;2022-12-18T00:58:39;54.58;;;18.15;;
22476;SDS011;65006;51.698;-0.292;2022-12-18T01:01:06;47.97;;;18.33;;
22476;SDS011;65006;51.698;-0.292;2022-12-18T01:03:33;41.53;;;16.08;;
22476;SDS011;65006;51.698;-0.292;2022-12-18T01:05:59;48.35;;;17.42;;
22476;SDS011;65006;51.698;-0.292;2022-12-18T01:08:25;53.90;;;17.95;;
22476;SDS011;65006;51.698;-0.292;2022-12-18T01:10:51;42.78;;;15.98;;
22476;SDS011;65006;51.698;-0.292;2022-12-18T01:13:17;47.15;;;17.35;;
22476;SDS011;65006;51.698;-0.292;2022-12-18T01:15:49;46.35;;;17.23;;
22476;SDS011;65006;51.698;-0.292;2022-12-18T01:18:15;54.72;;;18.02;;
22476;SDS011;65006;51.698;-0.292;2022-12-18T01:20:41;51.30;;;19.45;;
22476;SDS011;65006;51.698;-0.292;2022-12-18T01:23:07;50.92;;;18.20;;
22476;SDS011;65006;51.698;-0.292;2022-12-18T01:25:35;54.30;;;18.70;;
22476;SDS011;65006;51.698;-0.292;2022-12-18T01:28:01;49.53;;;18.25;;
22476;SDS011;65006;51.698;-0.292;2022-12-18T01:30:28;53.72;;;19.02;;
22476;SDS011;65006;51.698;-0.292;2022-12-18T01:32:53;59.97;;;18.77;;
22476;SDS011;65006;51.698;-0.292;2022-12-18T01:35:20;51.53;;;18.08;;
22476;SDS011;65006;51.698;-0.292;2022-12-18T01:37:47;51.22;;;18.25;;
22476;SDS011;65006;51.698;-0.292;2022-12-18T01:40:13;47.10;;;18.17;;
22476;SDS011;65006;51.698;-0.292;2022-12-18T01:42:39;55.45;;;18.50;;
22476;SDS011;65006;51.698;-0.292;2022-12-18T01:45:06;58.50;;;19.00;;
22476;SDS011;65006;51.698;-0.292;2022-12-18T01:50:03;53.85;;;19.40;;
22476;SDS011;65006;51.698;-0.292;2022-12-18T01:52:30;48.15;;;18.50;;
22476;SDS011;65006;51.698;-0.292;2022-12-18T01:54:57;52.60;;;17.77;;
22476;SDS011;65006;51.698;-0.292;2022-12-18T01:57:23;56.45;;;19.52;;
22476;SDS011;65006;51.698;-0.292;2022-12-18T01:59:51;49.88;;;17.58;;
22476;SDS011;65006;51.698;-0.292;2022-12-18T02:02:18;57.40;;;19.10;;
22476;SDS011;65006;51.698;-0.292;2022-12-18T02:04:44;47.60;;;17.05;;
22476;SDS011;65006;51.698;-0.292;2022-12-18T02:09:38;54.00;;;18.33;;
22476;SDS011;65006;51.698;-0.292;2022-12-18T02:17:03;58.22;;;17.30;;
22476;SDS011;65006;51.698;-0.292;2022-12-18T02:22:10;49.85;;;17.30;;
22476;SDS011;65006;51.698;-0.292;2022-12-18T02:24:45;53.35;;;18.48;;
22476;SDS011;65006;51.698;-0.292;2022-12-18T02:27:17;47.85;;;19.27;;
22476;SDS011;65006;51.698;-0.292;2022-12-18T02:29:46;51.97;;;17.75;;
22476;SDS011;65006;51.698;-0.292;2022-12-18T02:32:14;45.60;;;18.83;;
22476;SDS011;65006;51.698;-0.292;2022-12-18T02:34:42;51.45;;;18.63;;
22476;SDS011;65006;51.698;-0.292;2022-12-18T02:37:10;52.88;;;18.60;;
22476;SDS011;65006;51.698;-0.292;2022-12-18T02:39:37;54.15;;;17.52;;
22476;SDS011;65006;51.698;-0.292;2022-12-18T02:42:04;44.97;;;17.33;;
22476;SDS011;65006;51.698;-0.292;2022-12-18T02:44:33;55.38;;;18.73;;
22476;SDS011;65006;51.698;-0.292;2022-12-18T02:47:00;52.10;;;18.60;;
22476;SDS011;65006;51.698;-0.292;2022-12-18T02:52:31;49.30;;;19.58;;
22476;SDS011;65006;51.698;-0.292;2022-12-18T03:00:12;51.95;;;17.25;;
22476;SDS011;65006;51.698;-0.292;2022-12-18T03:02:42;50.22;;;18.45;;
22476;SDS011;65006;51.698;-0.292;2022-12-18T03:08:18;61.15;;;17.33;;
22476;SDS011;65006;51.698;-0.292;2022-12-18T03:10:26;53.83;;;19.20;;
22476;SDS011;65006;51.698;-0.292;2022-12-18T03:12:55;52.30;;;19.25;;
22476;SDS011;65006;51.698;-0.292;2022-12-18T03:15:25;56.63;;;18.77;;
22476;SDS011;65006;51.698;-0.292;2022-12-18T03:18:04;50.65;;;18.38;;
22476;SDS011;65006;51.698;-0.292;2022-12-18T03:20:32;44.80;;;16.65;;
22476;SDS011;65006;51.698;-0.292;2022-12-18T03:23:02;50.03;;;17.70;;
22476;SDS011;65006;51.698;-0.292;2022-12-18T03:25:29;48.28;;;16.00;;
22476;SDS011;65006;51.698;-0.292;2022-12-18T03:27:57;44.47;;;15.75;;
22476;SDS011;65006;51.698;-0.292;2022-12-18T03:30:24;53.28;;;18.00;;
22476;SDS011;65006;51.698;-0.292;2022-12-18T03:32:53;44.78;;;17.05;;
22476;SDS011;65006;51.698;-0.292;2022-12-18T03:35:24;42.13;;;17.17;;
22476;SDS011;65006;51.698;-0.292;2022-12-18T03:37:50;57.58;;;18.33;;
22476;SDS011;65006;51.698;-0.292;2022-12-18T03:40:16;51.20;;;18.10;;
22476;SDS011;65006;51.698;-0.292;2022-12-18T03:42:52;52.33;;;16.83;;
22476;SDS011;65006;51.698;-0.292;2022-12-18T03:50:23;43.42;;;14.73;;
22476;SDS011;65006;51.698;-0.292;2022-12-18T03:53:00;47.92;;;16.17;;
22476;SDS011;65006;51.698;-0.292;2022-12-18T03:55:30;46.20;;;16.40;;
22476;SDS011;65006;51.698;-0.292;2022-12-18T03:57:58;45.90;;;15.70;;
22476;SDS011;65006;51.698;-0.292;2022-12-18T04:00:25;48.45;;;15.75;;
22476;SDS011;65006;51.698;-0.292;2022-12-18T04:02:52;51.20;;;15.90;;
22476;SDS011;65006;51.698;-0.292;2022-12-18T04:05:19;47.00;;;15.20;;
22476;SDS011;65006;51.698;-0.292;2022-12-18T04:07:47;44.72;;;15.07;;
22476;SDS011;65006;51.698;-0.292;2022-12-18T04:10:13;50.75;;;17.70;;
22476;SDS011;65006;51.698;-0.292;2022-12-18T04:12:40;42.72;;;15.77;;
22476;SDS011;65006;51.698;-0.292;2022-12-18T04:15:06;44.72;;;15.80;;
22476;SDS011;65006;51.698;-0.292;2022-12-18T04:17:33;45.65;;;17.58;;
22476;SDS011;65006;51.698;-0.292;2022-12-18T04:19:59;40.83;;;14.88;;
22476;SDS011;65006;51.698;-0.292;2022-12-18T04:22:25;41.30;;;14.07;;
22476;SDS011;65006;51.698;-0.292;2022-12-18T04:24:51;47.50;;;15.77;;
22476;SDS011;65006;51.698;-0.292;2022-12-18T04:27:17;45.45;;;15.27;;
22476;SDS011;65006;51.698;-0.292;2022-12-18T04:29:43;44.50;;;15.75;;
22476;SDS011;65006;51.698;-0.292;2022-12-18T04:32:09;50.85;;;16.98;;
22476;SDS011;65006;51.698;-0.292;2022-12-18T04:34:35;48.80;;;18.02;;
22476;SDS011;65006;51.698;-0.292;2022-12-18T04:37:01;43.55;;;16.10;;
22476;SDS011;65006;51.698;-0.292;2022-12-18T04:39:27;45.58;;;15.27;;
22476;SDS011;65006;51.698;-0.292;2022-12-18T04:41:53;42.38;;;14.63;;
22476;SDS011;65006;51.698;-0.292;2022-12-18T04:44:19;37.00;;;13.07;;
22476;SDS011;65006;51.698;-0.292;2022-12-18T04:46:45;48.72;;;13.10;;
22476;SDS011;65006;51.698;-0.292;2022-12-18T04:49:11;39.50;;;14.35;;
22476;SDS011;65006;51.698;-0.292;2022-12-18T04:51:37;34.55;;;10.73;;
22476;SDS011;65006;51.698;-0.292;2022-12-18T04:54:03;41.20;;;13.93;;
22476;SDS011;65006;51.698;-0.292;2022-12-18T04:56:30;39.45;;;14.20;;
22476;SDS011;65006;51.698;-0.292;2022-12-18T04:58:56;41.88;;;12.40;;
22476;SDS011;65006;51.698;-0.292;2022-12-18T05:01:22;47.75;;;14.73;;
22476;SDS011;65006;51.698;-0.292;2022-12-18T05:03:48;43.38;;;14.02;;
22476;SDS011;65006;51.698;-0.292;2022-12-18T05:06:14;35.00;;;14.00;;
22476;SDS011;65006;51.698;-0.292;2022-12-18T05:08:40;38.30;;;13.02;;
22476;SDS011;65006;51.698;-0.292;2022-12-18T05:11:07;39.90;;;13.40;;
22476;SDS011;65006;51.698;-0.292;2022-12-18T05:13:34;44.45;;;13.65;;
22476;SDS011;65006;51.698;-0.292;2022-12-18T05:18:26;31.98;;;12.27;;
22476;SDS011;65006;51.698;-0.292;2022-12-18T05:20:53;38.92;;;13.23;;
22476;SDS011;65006;51.698;-0.292;2022-12-18T05:25:51;32.15;;;10.80;;
22476;SDS011;65006;51.698;-0.292;2022-12-18T05:28:18;32.90;;;12.55;;
22476;SDS011;65006;51.698;-0.292;2022-12-18T05:30:47;28.63;;;10.90;;
22476;SDS011;65006;51.698;-0.292;2022-12-18T05:33:14;36.53;;;14.05;;
22476;SDS011;65006;51.698;-0.292;2022-12-18T05:35:40;39.58;;;12.82;;
22476;SDS011;65006;51.698;-0.292;2022-12-18T05:38:06;34.97;;;12.88;;
22476;SDS011;65006;51.698;-0.292;2022-12-18T05:40:32;25.65;;;10.02;;
22476;SDS011;65006;51.698;-0.292;2022-12-18T05:42:58;28.77;;;10.75;;
22476;SDS011;65006;51.698;-0.292;2022-12-18T05:45:24;39.70;;;12.43;;
22476;SDS011;65006;51.698;-0.292;2022-12-18T05:47:50;33.08;;;13.52;;
22476;SDS011;65006;51.698;-0.292;2022-12-18T05:50:16;41.72;;;15.48;;
22476;SDS011;65006;51.698;-0.292;2022-12-18T05:52:42;38.40;;;15.65;;
22476;SDS011;65006;51.698;-0.292;2022-12-18T05:55:08;36.97;;;13.85;;
22476;SDS011;65006;51.698;-0.292;2022-12-18T05:57:34;37.20;;;13.90;;
22476;SDS011;65006;51.698;-0.292;2022-12-18T06:00:00;44.05;;;14.50;;
22476;SDS011;65006;51.698;-0.292;2022-12-18T06:02:26;45.78;;;14.40;;
22476;SDS011;65006;51.698;-0.292;2022-12-18T06:04:52;38.38;;;13.57;;
22476;SDS011;65006;51.698;-0.292;2022-12-18T06:07:18;45.28;;;14.82;;
22476;SDS011;65006;51.698;-0.292;2022-12-18T06:09:44;28.63;;;10.05;;
22476;SDS011;65006;51.698;-0.292;2022-12-18T06:12:10;47.22;;;14.48;;
22476;SDS011;65006;51.698;-0.292;2022-12-18T06:14:36;42.67;;;14.20;;
22476;SDS011;65006;51.698;-0.292;2022-12-18T06:17:02;34.28;;;14.05;;
22476;SDS011;65006;51.698;-0.292;2022-12-18T06:19:29;35.22;;;14.50;;
22476;SDS011;65006;51.698;-0.292;2022-12-18T06:21:55;39.17;;;12.68;;
22476;SDS011;65006;51.698;-0.292;2022-12-18T06:24:23;36.38;;;13.05;;
22476;SDS011;65006;51.698;-0.292;2022-12-18T06:26:49;32.03;;;13.43;;
22476;SDS011;65006;51.698;-0.292;2022-12-18T06:29:15;36.40;;;14.23;;
22476;SDS011;65006;51.698;-0.292;2022-12-18T06:31:41;35.92;;;12.82;;
22476;SDS011;65006;51.698;-0.292;2022-12-18T06:34:07;33.67;;;13.18;;
22476;SDS011;65006;51.698;-0.292;2022-12-18T06:36:33;36.33;;;12.63;;
22476;SDS011;65006;51.698;-0.292;2022-12-18T06:38:59;43.20;;;14.52;;
22476;SDS011;65006;51.698;-0.292;2022-12-18T06:41:25;35.00;;;12.80;;
22476;SDS011;65006;51.698;-0.292;2022-12-18T06:43:51;49.90;;;16.15;;
22476;SDS011;65006;51.698;-0.292;2022-12-18T06:46:17;39.42;;;14.25;;
22476;SDS011;65006;51.698;-0.292;2022-12-18T06:48:46;41.20;;;15.77;;
22476;SDS011;65006;51.698;-0.292;2022-12-18T06:51:14;40.10;;;14.10;;
22476;SDS011;65006;51.698;-0.292;2022-12-18T06:53:40;41.50;;;13.55;;
22476;SDS011;65006;51.698;-0.292;2022-12-18T06:56:07;39.78;;;14.45;;
22476;SDS011;65006;51.698;-0.292;2022-12-18T06:58:33;35.38;;;14.35;;
22476;SDS011;65006;51.698;-0.292;2022-12-18T07:01:03;42.97;;;14.73;;
22476;SDS011;65006;51.698;-0.292;2022-12-18T07:03:29;43.10;;;12.38;;
22476;SDS011;65006;51.698;-0.292;2022-12-18T07:05:55;43.22;;;15.10;;
22476;SDS011;65006;51.698;-0.292;2022-12-18T07:08:21;41.13;;;14.68;;
22476;SDS011;65006;51.698;-0.292;2022-12-18T07:10:47;32.53;;;11.82;;
22476;SDS011;65006;51.698;-0.292;2022-12-18T07:13:16;38.28;;;13.35;;
22476;SDS011;65006;51.698;-0.292;2022-12-18T07:18:08;35.35;;;13.38;;
22476;SDS011;65006;51.698;-0.292;2022-12-18T07:20:35;36.58;;;15.20;;
22476;SDS011;65006;51.698;-0.292;2022-12-18T07:23:02;40.33;;;14.90;;
22476;SDS011;65006;51.698;-0.292;2022-12-18T07:25:28;36.72;;;12.35;;
22476;SDS011;65006;51.698;-0.292;2022-12-18T07:27:54;40.25;;;15.10;;
22476;SDS011;65006;51.698;-0.292;2022-12-18T07:30:20;30.90;;;12.60;;
22476;SDS011;65006;51.698;-0.292;2022-12-18T07:32:46;43.47;;;14.32;;
22476;SDS011;65006;51.698;-0.292;2022-12-18T07:35:12;34.90;;;13.98;;
22476;SDS011;65006;51.698;-0.292;2022-12-18T07:37:38;40.33;;;13.35;;
22476;SDS011;65006;51.698;-0.292;2022-12-18T07:40:04;43.95;;;15.13;;
22476;SDS011;65006;51.698;-0.292;2022-12-18T07:42:31;39.42;;;12.98;;
22476;SDS011;65006;51.698;-0.292;2022-12-18T07:44:57;43.42;;;13.63;;
22476;SDS011;65006;51.698;-0.292;2022-12-18T07:47:23;41.97;;;13.50;;
22476;SDS011;65006;51.698;-0.292;2022-12-18T07:49:49;39.88;;;14.52;;
22476;SDS011;65006;51.698;-0.292;2022-12-18T07:52:15;42.08;;;13.35;;
22476;SDS011;65006;51.698;-0.292;2022-12-18T07:54:41;41.22;;;14.05;;
22476;SDS011;65006;51.698;-0.292;2022-12-18T07:57:07;34.30;;;13.68;;
22476;SDS011;65006;51.698;-0.292;2022-12-18T08:01:59;36.78;;;14.82;;
22476;SDS011;65006;51.698;-0.292;2022-12-18T08:04:25;38.15;;;13.95;;
22476;SDS011;65006;51.698;-0.292;2022-12-18T08:06:52;35.80;;;12.75;;
22476;SDS011;65006;51.698;-0.292;2022-12-18T08:09:18;33.47;;;14.23;;
22476;SDS011;65006;51.698;-0.292;2022-12-18T08:11:44;37.55;;;14.68;;
22476;SDS011;65006;51.698;-0.292;2022-12-18T08:14:10;35.03;;;11.45;;
22476;SDS011;65006;51.698;-0.292;2022-12-18T08:16:36;37.60;;;13.05;;
22476;SDS011;65006;51.698;-0.292;2022-12-18T08:19:02;35.58;;;12.43;;
22476;SDS011;65006;51.698;-0.292;2022-12-18T08:23:55;32.78;;;11.95;;
22476;SDS011;65006;51.698;-0.292;2022-12-18T08:26:22;38.55;;;13.68;;
22476;SDS011;65006;51.698;-0.292;2022-12-18T08:28:48;37.28;;;13.25;;
22476;SDS011;65006;51.698;-0.292;2022-12-18T08:31:14;37.30;;;13.13;;
22476;SDS011;65006;51.698;-0.292;2022-12-18T08:33:41;36.25;;;12.35;;
22476;SDS011;65006;51.698;-0.292;2022-12-18T08:36:07;36.40;;;13.73;;
22476;SDS011;65006;51.698;-0.292;2022-12-18T08:38:34;36.63;;;13.45;;
22476;SDS011;65006;51.698;-0.292;2022-12-18T08:41:00;38.22;;;13.00;;
22476;SDS011;65006;51.698;-0.292;2022-12-18T08:43:27;37.63;;;13.48;;
22476;SDS011;65006;51.698;-0.292;2022-12-18T08:46:15;40.35;;;13.30;;
22476;SDS011;65006;51.698;-0.292;2022-12-18T08:48:41;31.88;;;13.50;;
22476;SDS011;65006;51.698;-0.292;2022-12-18T08:51:07;38.85;;;14.27;;
22476;SDS011;65006;51.698;-0.292;2022-12-18T08:53:36;35.47;;;13.65;;
22476;SDS011;65006;51.698;-0.292;2022-12-18T08:56:03;32.78;;;13.00;;
22476;SDS011;65006;51.698;-0.292;2022-12-18T09:00:59;39.42;;;13.55;;
22476;SDS011;65006;51.698;-0.292;2022-12-18T09:03:26;39.50;;;13.85;;
22476;SDS011;65006;51.698;-0.292;2022-12-18T09:05:52;30.92;;;12.90;;
22476;SDS011;65006;51.698;-0.292;2022-12-18T09:08:18;39.85;;;13.27;;
22476;SDS011;65006;51.698;-0.292;2022-12-18T09:10:44;36.80;;;13.85;;
22476;SDS011;65006;51.698;-0.292;2022-12-18T09:13:11;39.22;;;12.82;;
22476;SDS011;65006;51.698;-0.292;2022-12-18T09:15:44;41.90;;;14.43;;
22476;SDS011;65006;51.698;-0.292;2022-12-18T09:18:11;37.92;;;15.05;;
22476;SDS011;65006;51.698;-0.292;2022-12-18T09:20:37;39.38;;;14.70;;
22476;SDS011;65006;51.698;-0.292;2022-12-18T09:23:03;39.35;;;14.20;;
22476;SDS011;65006;51.698;-0.292;2022-12-18T09:25:30;39.40;;;13.43;;
22476;SDS011;65006;51.698;-0.292;2022-12-18T09:27:58;47.58;;;13.70;;
22476;SDS011;65006;51.698;-0.292;2022-12-18T09:30:25;42.20;;;14.80;;
22476;SDS011;65006;51.698;-0.292;2022-12-18T09:32:55;35.33;;;13.52;;
22476;SDS011;65006;51.698;-0.292;2022-12-18T09:35:21;37.83;;;13.98;;
22476;SDS011;65006;51.698;-0.292;2022-12-18T09:37:47;43.15;;;16.33;;
22476;SDS011;65006;51.698;-0.292;2022-12-18T09:40:16;40.45;;;14.02;;
22476;SDS011;65006;51.698;-0.292;2022-12-18T09:42:44;37.30;;;13.88;;
22476;SDS011;65006;51.698;-0.292;2022-12-18T09:45:12;42.90;;;13.95;;
22476;SDS011;65006;51.698;-0.292;2022-12-18T09:47:39;37.80;;;14.63;;
22476;SDS011;65006;51.698;-0.292;2022-12-18T09:52:45;31.33;;;12.85;;
22476;SDS011;65006;51.698;-0.292;2022-12-18T09:57:59;32.97;;;13.48;;
22476;SDS011;65006;51.698;-0.292;2022-12-18T10:00:28;35.38;;;13.93;;
22476;SDS011;65006;51.698;-0.292;2022-12-18T10:03:01;37.92;;;15.05;;
22476;SDS011;65006;51.698;-0.292;2022-12-18T10:05:33;35.30;;;12.98;;
22476;SDS011;65006;51.698;-0.292;2022-12-18T10:10:41;35.78;;;14.40;;
22476;SDS011;65006;51.698;-0.292;2022-12-18T10:13:30;34.90;;;14.18;;
22476;SDS011;65006;51.698;-0.292;2022-12-18T10:16:08;38.20;;;13.88;;
22476;SDS011;65006;51.698;-0.292;2022-12-18T10:21:03;37.65;;;14.10;;
22476;SDS011;65006;51.698;-0.292;2022-12-18T10:23:33;34.38;;;14.15;;
22476;SDS011;65006;51.698;-0.292;2022-12-18T10:26:05;31.88;;;14.05;;
22476;SDS011;65006;51.698;-0.292;2022-12-18T10:28:32;34.65;;;14.43;;
22476;SDS011;65006;51.698;-0.292;2022-12-18T10:30:58;39.20;;;14.60;;
22476;SDS011;65006;51.698;-0.292;2022-12-18T10:33:28;38.20;;;14.60;;
22476;SDS011;65006;51.698;-0.292;2022-12-18T10:35:54;33.58;;;13.75;;
22476;SDS011;65006;51.698;-0.292;2022-12-18T10:38:25;34.17;;;13.60;;
22476;SDS011;65006;51.698;-0.292;2022-12-18T10:40:53;35.13;;;14.50;;
22476;SDS011;65006;51.698;-0.292;2022-12-18T10:43:24;36.88;;;13.95;;
22476;SDS011;65006;51.698;-0.292;2022-12-18T10:56:20;40.53;;;14.52;;
22476;SDS011;65006;51.698;-0.292;2022-12-18T10:58:55;36.00;;;14.05;;
22476;SDS011;65006;51.698;-0.292;2022-12-18T11:01:21;38.33;;;14.80;;
22476;SDS011;65006;51.698;-0.292;2022-12-18T11:06:17;33.65;;;13.68;;
22476;SDS011;65006;51.698;-0.292;2022-12-18T11:08:45;36.78;;;14.93;;
22476;SDS011;65006;51.698;-0.292;2022-12-18T11:11:23;36.10;;;14.70;;
22476;SDS011;65006;51.698;-0.292;2022-12-18T11:16:45;32.70;;;13.57;;
22476;SDS011;65006;51.698;-0.292;2022-12-18T11:21:39;33.47;;;13.50;;
22476;SDS011;65006;51.698;-0.292;2022-12-18T11:24:07;36.10;;;14.13;;
22476;SDS011;65006;51.698;-0.292;2022-12-18T11:26:41;37.63;;;14.38;;
22476;SDS011;65006;51.698;-0.292;2022-12-18T11:29:09;36.30;;;14.10;;
22476;SDS011;65006;51.698;-0.292;2022-12-18T11:31:36;33.72;;;14.52;;
22476;SDS011;65006;51.698;-0.292;2022-12-18T11:34:04;30.92;;;14.45;;
22476;SDS011;65006;51.698;-0.292;2022-12-18T11:36:36;34.17;;;15.32;;
22476;SDS011;65006;51.698;-0.292;2022-12-18T11:39:17;28.67;;;13.63;;
22476;SDS011;65006;51.698;-0.292;2022-12-18T11:44:52;38.25;;;15.07;;
22476;SDS011;65006;51.698;-0.292;2022-12-18T11:49:50;36.00;;;15.00;;
22476;SDS011;65006;51.698;-0.292;2022-12-18T11:54:42;33.97;;;14.80;;
22476;SDS011;65006;51.698;-0.292;2022-12-18T12:02:17;40.80;;;15.45;;
22476;SDS011;65006;51.698;-0.292;2022-12-18T12:04:50;38.88;;;15.57;;
22476;SDS011;65006;51.698;-0.292;2022-12-18T12:15:40;32.17;;;14.90;;
22476;SDS011;65006;51.698;-0.292;2022-12-18T12:31:16;41.33;;;15.50;;
22476;SDS011;65006;51.698;-0.292;2022-12-18T12:34:26;39.92;;;16.17;;
22476;SDS011;65006;51.698;-0.292;2022-12-18T12:36:39;29.92;;;14.40;;
22476;SDS011;65006;51.698;-0.292;2022-12-18T12:39:08;37.25;;;16.00;;
22476;SDS011;65006;51.698;-0.292;2022-12-18T12:41:37;33.67;;;15.05;;
22476;SDS011;65006;51.698;-0.292;2022-12-18T12:44:33;38.85;;;15.23;;
22476;SDS011;65006;51.698;-0.292;2022-12-18T12:47:03;36.20;;;15.13;;
22476;SDS011;65006;51.698;-0.292;2022-12-18T12:49:31;31.10;;;15.65;;
22476;SDS011;65006;51.698;-0.292;2022-12-18T12:52:10;37.88;;;15.40;;
22476;SDS011;65006;51.698;-0.292;2022-12-18T12:54:38;37.70;;;16.27;;
22476;SDS011;65006;51.698;-0.292;2022-12-18T13:02:21;38.03;;;16.95;;
22476;SDS011;65006;51.698;-0.292;2022-12-18T13:07:35;35.47;;;16.10;;
22476;SDS011;65006;51.698;-0.292;2022-12-18T13:12:57;41.67;;;15.57;;
22476;SDS011;65006;51.698;-0.292;2022-12-18T13:18:02;36.47;;;15.63;;
22476;SDS011;65006;51.698;-0.292;2022-12-18T13:20:32;37.92;;;15.25;;
22476;SDS011;65006;51.698;-0.292;2022-12-18T13:22:59;32.30;;;13.82;;
22476;SDS011;65006;51.698;-0.292;2022-12-18T13:25:29;33.35;;;15.45;;
22476;SDS011;65006;51.698;-0.292;2022-12-18T13:28:04;34.58;;;14.82;;
22476;SDS011;65006;51.698;-0.292;2022-12-18T13:35:50;39.97;;;15.18;;
22476;SDS011;65006;51.698;-0.292;2022-12-18T13:38:25;35.00;;;14.23;;
22476;SDS011;65006;51.698;-0.292;2022-12-18T13:40:59;29.17;;;13.90;;
22476;SDS011;65006;51.698;-0.292;2022-12-18T13:43:32;38.78;;;15.23;;
22476;SDS011;65006;51.698;-0.292;2022-12-18T13:48:26;32.70;;;12.88;;
22476;SDS011;65006;51.698;-0.292;2022-12-18T13:51:15;30.23;;;12.80;;
22476;SDS011;65006;51.698;-0.292;2022-12-18T13:53:58;30.92;;;12.90;;
22476;SDS011;65006;51.698;-0.292;2022-12-18T13:56:27;38.90;;;16.15;;
22476;SDS011;65006;51.698;-0.292;2022-12-18T13:59:13;46.13;;;15.15;;
22476;SDS011;65006;51.698;-0.292;2022-12-18T14:01:59;28.85;;;12.93;;
22476;SDS011;65006;51.698;-0.292;2022-12-18T14:04:26;31.20;;;12.40;;
22476;SDS011;65006;51.698;-0.292;2022-12-18T14:06:55;25.50;;;11.52;;
22476;SDS011;65006;51.698;-0.292;2022-12-18T14:09:26;22.67;;;11.25;;
22476;SDS011;65006;51.698;-0.292;2022-12-18T14:11:52;31.15;;;12.90;;
22476;SDS011;65006;51.698;-0.292;2022-12-18T14:14:40;29.90;;;12.27;;
22476;SDS011;65006;51.698;-0.292;2022-12-18T14:17:08;24.58;;;10.38;;
22476;SDS011;65006;51.698;-0.292;2022-12-18T14:19:35;26.40;;;10.95;;
22476;SDS011;65006;51.698;-0.292;2022-12-18T14:22:01;27.10;;;11.35;;
22476;SDS011;65006;51.698;-0.292;2022-12-18T14:24:27;23.42;;;10.63;;
22476;SDS011;65006;51.698;-0.292;2022-12-18T14:26:56;20.70;;;8.77;;
22476;SDS011;65006;51.698;-0.292;2022-12-18T14:29:37;19.27;;;9.48;;
22476;SDS011;65006;51.698;-0.292;2022-12-18T14:34:39;24.13;;;9.50;;
22476;SDS011;65006;51.698;-0.292;2022-12-18T14:37:05;21.95;;;8.18;;
22476;SDS011;65006;51.698;-0.292;2022-12-18T14:39:33;27.80;;;9.90;;
22476;SDS011;65006;51.698;-0.292;2022-12-18T14:41:59;25.17;;;9.25;;
22476;SDS011;65006;51.698;-0.292;2022-12-18T14:44:25;14.55;;;8.35;;
22476;SDS011;65006;51.698;-0.292;2022-12-18T14:46:51;24.15;;;10.18;;
22476;SDS011;65006;51.698;-0.292;2022-12-18T14:49:33;18.00;;;7.72;;
22476;SDS011;65006;51.698;-0.292;2022-12-18T14:52:05;17.73;;;8.95;;
22476;SDS011;65006;51.698;-0.292;2022-12-18T14:54:32;17.23;;;8.02;;
22476;SDS011;65006;51.698;-0.292;2022-12-18T14:57:00;16.48;;;7.65;;
22476;SDS011;65006;51.698;-0.292;2022-12-18T14:59:26;17.40;;;8.80;;
22476;SDS011;65006;51.698;-0.292;2022-12-18T15:04:26;19.00;;;7.60;;
22476;SDS011;65006;51.698;-0.292;2022-12-18T15:09:34;15.07;;;7.32;;
22476;SDS011;65006;51.698;-0.292;2022-12-18T15:12:00;16.95;;;8.20;;
22476;SDS011;65006;51.698;-0.292;2022-12-18T15:16:53;17.35;;;7.65;;
22476;SDS011;65006;51.698;-0.292;2022-12-18T15:19:20;13.43;;;7.40;;
22476;SDS011;65006;51.698;-0.292;2022-12-18T15:21:46;16.77;;;7.93;;
22476;SDS011;65006;51.698;-0.292;2022-12-18T15:24:20;18.98;;;7.88;;
22476;SDS011;65006;51.698;-0.292;2022-12-18T15:26:48;16.77;;;6.75;;
22476;SDS011;65006;51.698;-0.292;2022-12-18T15:29:32;13.20;;;6.43;;
22476;SDS011;65006;51.698;-0.292;2022-12-18T15:31:59;14.65;;;6.93;;
22476;SDS011;65006;51.698;-0.292;2022-12-18T15:34:25;14.18;;;7.25;;
22476;SDS011;65006;51.698;-0.292;2022-12-18T15:36:51;17.30;;;7.57;;
22476;SDS011;65006;51.698;-0.292;2022-12-18T15:39:17;14.65;;;7.13;;
22476;SDS011;65006;51.698;-0.292;2022-12-18T15:41:43;16.58;;;7.05;;
22476;SDS011;65006;51.698;-0.292;2022-12-18T15:44:30;17.67;;;7.57;;
22476;SDS011;65006;51.698;-0.292;2022-12-18T15:46:56;15.93;;;6.70;;
22476;SDS011;65006;51.698;-0.292;2022-12-18T15:49:22;17.73;;;7.25;;
22476;SDS011;65006;51.698;-0.292;2022-12-18T15:51:50;13.15;;;6.80;;
22476;SDS011;65006;51.698;-0.292;2022-12-18T15:54:17;17.92;;;6.32;;
22476;SDS011;65006;51.698;-0.292;2022-12-18T15:57:03;16.02;;;7.03;;
22476;SDS011;65006;51.698;-0.292;2022-12-18T15:59:47;15.65;;;6.47;;
22476;SDS011;65006;51.698;-0.292;2022-12-18T16:02:16;15.02;;;7.40;;
22476;SDS011;65006;51.698;-0.292;2022-12-18T16:04:42;19.42;;;7.95;;
22476;SDS011;65006;51.698;-0.292;2022-12-18T16:07:08;13.27;;;6.53;;
22476;SDS011;65006;51.698;-0.292;2022-12-18T16:09:35;14.98;;;6.47;;
22476;SDS011;65006;51.698;-0.292;2022-12-18T16:12:01;14.95;;;7.20;;
22476;SDS011;65006;51.698;-0.292;2022-12-18T16:14:30;10.00;;;5.53;;
22476;SDS011;65006;51.698;-0.292;2022-12-18T16:16:58;15.07;;;6.70;;
22476;SDS011;65006;51.698;-0.292;2022-12-18T16:19:24;14.23;;;6.43;;
22476;SDS011;65006;51.698;-0.292;2022-12-18T16:21:51;15.65;;;7.40;;
22476;SDS011;65006;51.698;-0.292;2022-12-18T16:24:18;13.63;;;6.45;;
22476;SDS011;65006;51.698;-0.292;2022-12-18T16:26:46;15.05;;;7.22;;
22476;SDS011;65006;51.698;-0.292;2022-12-18T16:29:13;15.63;;;7.40;;
22476;SDS011;65006;51.698;-0.292;2022-12-18T16:31:39;16.10;;;8.20;;
22476;SDS011;65006;51.698;-0.292;2022-12-18T16:34:18;16.70;;;7.82;;
22476;SDS011;65006;51.698;-0.292;2022-12-18T16:36:47;19.75;;;8.20;;
22476;SDS011;65006;51.698;-0.292;2022-12-18T16:39:13;18.20;;;7.72;;